sensor_id;sensor_type;location;lat;lon;timestamp;temperature;humidity
35531;DHT22;21637;53.352;-6.356;2024-03-29T00:00:53;3.70;99.90
35531;DHT22;21637;53.352;-6.356;2024-03-29T00:03:19;3.70;99.90
35531;DHT22;21637;53.352;-6.356;2024-03-29T00:05:44;3.80;99.90
35531;DHT22;21637;53.352;-6.356;2024-03-29T00:08:10;3.70;99.90
35531;DHT22;21637;53.352;-6.356;2024-03-29T00:10:36;3.70;99.90
35531;DHT22;21637;53.352;-6.356;2024-03-29T00:13:02;3.70;99.90
35531;DHT22;21637;53.352;-6.356;2024-03-29T00:15:27;3.70;99.90
35531;DHT22;21637;53.352;-6.356;2024-03-29T00:17:53;3.60;99.90
35531;DHT22;21637;53.352;-6.356;2024-03-29T00:20:19;3.60;99.90
35531;DHT22;21637;53.352;-6.356;2024-03-29T00:22:46;3.40;99.90
35531;DHT22;21637;53.352;-6.356;2024-03-29T00:25:12;3.40;99.90
35531;DHT22;21637;53.352;-6.356;2024-03-29T00:27:38;3.30;99.90
35531;DHT22;21637;53.352;-6.356;2024-03-29T00:30:04;3.30;99.90
35531;DHT22;21637;53.352;-6.356;2024-03-29T00:32:30;3.30;99.90
35531;DHT22;21637;53.352;-6.356;2024-03-29T00:34:56;3.40;99.90
35531;DHT22;21637;53.352;-6.356;2024-03-29T00:37:23;3.30;99.90
35531;DHT22;21637;53.352;-6.356;2024-03-29T00:39:50;3.20;99.90
35531;DHT22;21637;53.352;-6.356;2024-03-29T00:42:16;3.20;99.90
35531;DHT22;21637;53.352;-6.356;2024-03-29T00:44:42;3.30;99.90
35531;DHT22;21637;53.352;-6.356;2024-03-29T00:47:09;3.20;99.90
35531;DHT22;21637;53.352;-6.356;2024-03-29T00:49:35;3.20;99.90
35531;DHT22;21637;53.352;-6.356;2024-03-29T00:52:02;3.20;99.90
35531;DHT22;21637;53.352;-6.356;2024-03-29T00:54:28;3.20;99.90
35531;DHT22;21637;53.352;-6.356;2024-03-29T00:56:53;3.20;99.90
35531;DHT22;21637;53.352;-6.356;2024-03-29T00:59:19;3.10;99.90
35531;DHT22;21637;53.352;-6.356;2024-03-29T01:01:46;3.20;99.90
35531;DHT22;21637;53.352;-6.356;2024-03-29T01:04:12;3.10;99.90
35531;DHT22;21637;53.352;-6.356;2024-03-29T01:06:39;3.10;99.90
35531;DHT22;21637;53.352;-6.356;2024-03-29T01:09:07;3.10;99.90
35531;DHT22;21637;53.352;-6.356;2024-03-29T01:11:37;3.10;99.90
35531;DHT22;21637;53.352;-6.356;2024-03-29T01:14:03;3.00;99.90
35531;DHT22;21637;53.352;-6.356;2024-03-29T01:16:29;3.10;99.90
35531;DHT22;21637;53.352;-6.356;2024-03-29T01:18:54;3.10;99.90
35531;DHT22;21637;53.352;-6.356;2024-03-29T01:21:20;3.10;99.90
35531;DHT22;21637;53.352;-6.356;2024-03-29T01:23:46;3.10;99.90
35531;DHT22;21637;53.352;-6.356;2024-03-29T01:26:12;3.10;99.90
35531;DHT22;21637;53.352;-6.356;2024-03-29T01:28:38;3.10;99.90
35531;DHT22;21637;53.352;-6.356;2024-03-29T01:31:04;3.00;99.90
35531;DHT22;21637;53.352;-6.356;2024-03-29T01:33:31;3.00;99.90
35531;DHT22;21637;53.352;-6.356;2024-03-29T01:36:06;3.10;99.90
35531;DHT22;21637;53.352;-6.356;2024-03-29T01:38:31;3.10;99.90
35531;DHT22;21637;53.352;-6.356;2024-03-29T01:40:57;3.10;99.90
35531;DHT22;21637;53.352;-6.356;2024-03-29T01:43:23;3.00;99.90
35531;DHT22;21637;53.352;-6.356;2024-03-29T01:45:51;3.10;99.90
35531;DHT22;21637;53.352;-6.356;2024-03-29T01:48:19;3.10;99.90
35531;DHT22;21637;53.352;-6.356;2024-03-29T01:50:47;3.00;99.90
35531;DHT22;21637;53.352;-6.356;2024-03-29T01:53:14;3.00;99.90
35531;DHT22;21637;53.352;-6.356;2024-03-29T01:55:41;2.90;99.90
35531;DHT22;21637;53.352;-6.356;2024-03-29T01:58:09;2.80;99.90
35531;DHT22;21637;53.352;-6.356;2024-03-29T02:00:41;2.80;99.90
35531;DHT22;21637;53.352;-6.356;2024-03-29T02:03:07;2.80;99.90
35531;DHT22;21637;53.352;-6.356;2024-03-29T02:05:43;2.80;99.90
35531;DHT22;21637;53.352;-6.356;2024-03-29T02:08:10;2.90;99.90
35531;DHT22;21637;53.352;-6.356;2024-03-29T02:10:36;2.90;99.90
35531;DHT22;21637;53.352;-6.356;2024-03-29T02:13:02;2.90;99.90
35531;DHT22;21637;53.352;-6.356;2024-03-29T02:15:29;2.90;99.90
35531;DHT22;21637;53.352;-6.356;2024-03-29T02:17:54;2.80;99.90
35531;DHT22;21637;53.352;-6.356;2024-03-29T02:20:20;2.70;99.90
35531;DHT22;21637;53.352;-6.356;2024-03-29T02:23:08;2.80;99.90
35531;DHT22;21637;53.352;-6.356;2024-03-29T02:25:35;2.70;99.90
35531;DHT22;21637;53.352;-6.356;2024-03-29T02:28:02;2.70;99.90
35531;DHT22;21637;53.352;-6.356;2024-03-29T02:30:31;2.80;99.90
35531;DHT22;21637;53.352;-6.356;2024-03-29T02:33:00;2.90;99.90
35531;DHT22;21637;53.352;-6.356;2024-03-29T02:35:26;2.90;99.90
35531;DHT22;21637;53.352;-6.356;2024-03-29T02:37:52;2.90;99.90
35531;DHT22;21637;53.352;-6.356;2024-03-29T02:40:19;3.00;99.90
35531;DHT22;21637;53.352;-6.356;2024-03-29T02:42:45;3.10;99.90
35531;DHT22;21637;53.352;-6.356;2024-03-29T02:45:11;3.20;99.90
35531;DHT22;21637;53.352;-6.356;2024-03-29T02:47:37;3.30;99.90
35531;DHT22;21637;53.352;-6.356;2024-03-29T02:50:03;3.30;99.90
35531;DHT22;21637;53.352;-6.356;2024-03-29T02:52:29;3.40;99.90
35531;DHT22;21637;53.352;-6.356;2024-03-29T02:54:55;3.30;99.90
35531;DHT22;21637;53.352;-6.356;2024-03-29T02:57:20;3.30;99.90
35531;DHT22;21637;53.352;-6.356;2024-03-29T02:59:46;3.30;99.90
35531;DHT22;21637;53.352;-6.356;2024-03-29T03:02:12;3.40;99.90
35531;DHT22;21637;53.352;-6.356;2024-03-29T03:04:37;3.30;99.90
35531;DHT22;21637;53.352;-6.356;2024-03-29T03:07:03;3.40;99.90
35531;DHT22;21637;53.352;-6.356;2024-03-29T03:09:47;3.30;99.90
35531;DHT22;21637;53.352;-6.356;2024-03-29T03:12:31;3.20;99.90
35531;DHT22;21637;53.352;-6.356;2024-03-29T03:15:00;3.20;99.90
35531;DHT22;21637;53.352;-6.356;2024-03-29T03:17:28;3.20;99.90
35531;DHT22;21637;53.352;-6.356;2024-03-29T03:19:54;3.30;99.90
35531;DHT22;21637;53.352;-6.356;2024-03-29T03:22:19;3.50;99.90
35531;DHT22;21637;53.352;-6.356;2024-03-29T03:24:45;3.40;99.90
35531;DHT22;21637;53.352;-6.356;2024-03-29T03:27:11;3.50;99.90
35531;DHT22;21637;53.352;-6.356;2024-03-29T03:29:37;3.60;99.90
35531;DHT22;21637;53.352;-6.356;2024-03-29T03:32:03;3.70;99.90
35531;DHT22;21637;53.352;-6.356;2024-03-29T03:34:29;3.70;99.90
35531;DHT22;21637;53.352;-6.356;2024-03-29T03:36:55;3.80;99.90
35531;DHT22;21637;53.352;-6.356;2024-03-29T03:39:21;3.80;99.90
35531;DHT22;21637;53.352;-6.356;2024-03-29T03:41:47;4.00;99.90
35531;DHT22;21637;53.352;-6.356;2024-03-29T03:44:13;4.00;99.90
35531;DHT22;21637;53.352;-6.356;2024-03-29T03:46:39;3.90;99.90
35531;DHT22;21637;53.352;-6.356;2024-03-29T03:49:05;4.10;99.90
35531;DHT22;21637;53.352;-6.356;2024-03-29T03:51:30;4.10;99.90
35531;DHT22;21637;53.352;-6.356;2024-03-29T03:53:56;4.10;99.90
35531;DHT22;21637;53.352;-6.356;2024-03-29T03:56:22;4.10;99.90
35531;DHT22;21637;53.352;-6.356;2024-03-29T03:58:48;4.10;99.90
35531;DHT22;21637;53.352;-6.356;2024-03-29T04:01:13;4.10;99.90
35531;DHT22;21637;53.352;-6.356;2024-03-29T04:03:39;4.20;99.90
35531;DHT22;21637;53.352;-6.356;2024-03-29T04:06:05;4.10;99.90
35531;DHT22;21637;53.352;-6.356;2024-03-29T04:08:31;4.10;99.90
35531;DHT22;21637;53.352;-6.356;2024-03-29T04:10:57;4.20;99.90
35531;DHT22;21637;53.352;-6.356;2024-03-29T04:13:26;4.20;99.90
35531;DHT22;21637;53.352;-6.356;2024-03-29T04:15:52;4.20;99.90
35531;DHT22;21637;53.352;-6.356;2024-03-29T04:18:17;4.20;99.90
35531;DHT22;21637;53.352;-6.356;2024-03-29T04:20:43;4.20;99.90
35531;DHT22;21637;53.352;-6.356;2024-03-29T04:23:09;4.30;99.90
35531;DHT22;21637;53.352;-6.356;2024-03-29T04:25:34;4.30;99.90
35531;DHT22;21637;53.352;-6.356;2024-03-29T04:28:00;4.40;99.90
35531;DHT22;21637;53.352;-6.356;2024-03-29T04:30:26;4.40;99.90
35531;DHT22;21637;53.352;-6.356;2024-03-29T04:32:51;4.40;99.90
35531;DHT22;21637;53.352;-6.356;2024-03-29T04:35:18;4.40;99.90
35531;DHT22;21637;53.352;-6.356;2024-03-29T04:37:44;4.50;99.90
35531;DHT22;21637;53.352;-6.356;2024-03-29T04:40:10;4.50;99.90
35531;DHT22;21637;53.352;-6.356;2024-03-29T04:42:36;4.80;99.90
35531;DHT22;21637;53.352;-6.356;2024-03-29T04:45:02;4.70;99.90
35531;DHT22;21637;53.352;-6.356;2024-03-29T04:47:29;4.80;99.90
35531;DHT22;21637;53.352;-6.356;2024-03-29T04:49:55;4.80;99.90
35531;DHT22;21637;53.352;-6.356;2024-03-29T04:52:20;4.70;99.90
35531;DHT22;21637;53.352;-6.356;2024-03-29T04:54:47;4.70;99.90
35531;DHT22;21637;53.352;-6.356;2024-03-29T04:57:13;4.90;99.90
35531;DHT22;21637;53.352;-6.356;2024-03-29T04:59:39;4.90;99.90
35531;DHT22;21637;53.352;-6.356;2024-03-29T05:02:04;4.90;99.90
35531;DHT22;21637;53.352;-6.356;2024-03-29T05:04:30;4.90;99.90
35531;DHT22;21637;53.352;-6.356;2024-03-29T05:06:57;5.00;99.90
35531;DHT22;21637;53.352;-6.356;2024-03-29T05:09:24;5.00;99.90
35531;DHT22;21637;53.352;-6.356;2024-03-29T05:11:50;5.10;99.90
35531;DHT22;21637;53.352;-6.356;2024-03-29T05:14:17;5.10;99.90
35531;DHT22;21637;53.352;-6.356;2024-03-29T05:16:48;5.20;99.90
35531;DHT22;21637;53.352;-6.356;2024-03-29T05:19:14;5.20;99.90
35531;DHT22;21637;53.352;-6.356;2024-03-29T05:21:41;5.20;99.90
35531;DHT22;21637;53.352;-6.356;2024-03-29T05:24:07;5.10;99.90
35531;DHT22;21637;53.352;-6.356;2024-03-29T05:26:33;5.10;99.90
35531;DHT22;21637;53.352;-6.356;2024-03-29T05:28:59;5.10;99.90
35531;DHT22;21637;53.352;-6.356;2024-03-29T05:31:26;5.10;99.90
35531;DHT22;21637;53.352;-6.356;2024-03-29T05:33:52;5.00;99.90
35531;DHT22;21637;53.352;-6.356;2024-03-29T05:36:18;5.00;99.90
35531;DHT22;21637;53.352;-6.356;2024-03-29T05:38:44;4.90;99.90
35531;DHT22;21637;53.352;-6.356;2024-03-29T05:41:11;4.90;99.90
35531;DHT22;21637;53.352;-6.356;2024-03-29T05:43:38;4.90;99.90
35531;DHT22;21637;53.352;-6.356;2024-03-29T05:46:05;4.70;99.90
35531;DHT22;21637;53.352;-6.356;2024-03-29T05:48:31;4.80;99.90
35531;DHT22;21637;53.352;-6.356;2024-03-29T05:50:56;4.70;99.90
35531;DHT22;21637;53.352;-6.356;2024-03-29T05:53:22;4.60;99.90
35531;DHT22;21637;53.352;-6.356;2024-03-29T05:55:48;4.50;99.90
35531;DHT22;21637;53.352;-6.356;2024-03-29T05:58:14;4.50;99.90
35531;DHT22;21637;53.352;-6.356;2024-03-29T06:00:43;4.50;99.90
35531;DHT22;21637;53.352;-6.356;2024-03-29T06:03:09;4.40;99.90
35531;DHT22;21637;53.352;-6.356;2024-03-29T06:05:35;4.50;99.90
35531;DHT22;21637;53.352;-6.356;2024-03-29T06:08:00;4.30;99.90
35531;DHT22;21637;53.352;-6.356;2024-03-29T06:10:26;4.30;99.90
35531;DHT22;21637;53.352;-6.356;2024-03-29T06:12:52;4.30;99.90
35531;DHT22;21637;53.352;-6.356;2024-03-29T06:15:17;4.30;99.90
35531;DHT22;21637;53.352;-6.356;2024-03-29T06:18:01;4.20;99.90
35531;DHT22;21637;53.352;-6.356;2024-03-29T06:20:27;4.20;99.90
35531;DHT22;21637;53.352;-6.356;2024-03-29T06:22:53;4.30;99.90
35531;DHT22;21637;53.352;-6.356;2024-03-29T06:25:19;4.20;99.90
35531;DHT22;21637;53.352;-6.356;2024-03-29T06:27:45;4.30;99.90
35531;DHT22;21637;53.352;-6.356;2024-03-29T06:30:15;4.40;99.90
35531;DHT22;21637;53.352;-6.356;2024-03-29T06:32:44;4.40;99.90
35531;DHT22;21637;53.352;-6.356;2024-03-29T06:35:13;4.50;99.90
35531;DHT22;21637;53.352;-6.356;2024-03-29T06:37:39;4.60;99.90
35531;DHT22;21637;53.352;-6.356;2024-03-29T06:40:06;4.80;99.90
35531;DHT22;21637;53.352;-6.356;2024-03-29T06:42:33;4.80;99.90
35531;DHT22;21637;53.352;-6.356;2024-03-29T06:44:59;4.90;99.90
35531;DHT22;21637;53.352;-6.356;2024-03-29T06:47:27;4.90;99.90
35531;DHT22;21637;53.352;-6.356;2024-03-29T06:49:53;5.00;99.90
35531;DHT22;21637;53.352;-6.356;2024-03-29T06:52:19;5.10;99.90
35531;DHT22;21637;53.352;-6.356;2024-03-29T06:54:45;5.10;99.90
35531;DHT22;21637;53.352;-6.356;2024-03-29T06:57:10;5.00;99.90
35531;DHT22;21637;53.352;-6.356;2024-03-29T06:59:41;5.00;99.90
35531;DHT22;21637;53.352;-6.356;2024-03-29T07:02:06;4.90;99.90
35531;DHT22;21637;53.352;-6.356;2024-03-29T07:04:32;5.10;99.90
35531;DHT22;21637;53.352;-6.356;2024-03-29T07:06:58;5.10;99.90
35531;DHT22;21637;53.352;-6.356;2024-03-29T07:09:24;5.10;99.90
35531;DHT22;21637;53.352;-6.356;2024-03-29T07:11:51;5.10;99.90
35531;DHT22;21637;53.352;-6.356;2024-03-29T07:14:18;5.20;99.90
35531;DHT22;21637;53.352;-6.356;2024-03-29T07:16:45;5.30;99.90
35531;DHT22;21637;53.352;-6.356;2024-03-29T07:19:11;5.50;99.90
35531;DHT22;21637;53.352;-6.356;2024-03-29T07:21:43;5.40;99.90
35531;DHT22;21637;53.352;-6.356;2024-03-29T07:24:09;5.50;99.90
35531;DHT22;21637;53.352;-6.356;2024-03-29T07:26:35;5.50;99.90
35531;DHT22;21637;53.352;-6.356;2024-03-29T07:29:00;5.60;99.90
35531;DHT22;21637;53.352;-6.356;2024-03-29T07:31:26;5.70;99.90
35531;DHT22;21637;53.352;-6.356;2024-03-29T07:33:52;5.70;99.90
35531;DHT22;21637;53.352;-6.356;2024-03-29T07:36:18;5.70;99.90
35531;DHT22;21637;53.352;-6.356;2024-03-29T07:38:43;5.80;99.90
35531;DHT22;21637;53.352;-6.356;2024-03-29T07:41:10;6.00;99.90
35531;DHT22;21637;53.352;-6.356;2024-03-29T07:43:39;6.00;99.90
35531;DHT22;21637;53.352;-6.356;2024-03-29T07:46:06;6.10;99.90
35531;DHT22;21637;53.352;-6.356;2024-03-29T07:48:34;6.30;99.90
35531;DHT22;21637;53.352;-6.356;2024-03-29T07:51:00;6.40;99.90
35531;DHT22;21637;53.352;-6.356;2024-03-29T07:53:25;6.50;99.90
35531;DHT22;21637;53.352;-6.356;2024-03-29T07:55:51;6.60;99.90
35531;DHT22;21637;53.352;-6.356;2024-03-29T07:58:17;6.80;99.90
35531;DHT22;21637;53.352;-6.356;2024-03-29T08:00:42;6.80;99.90
35531;DHT22;21637;53.352;-6.356;2024-03-29T08:03:08;6.90;99.90
35531;DHT22;21637;53.352;-6.356;2024-03-29T08:05:34;7.00;99.90
35531;DHT22;21637;53.352;-6.356;2024-03-29T08:08:00;7.00;99.90
35531;DHT22;21637;53.352;-6.356;2024-03-29T08:10:26;7.20;99.90
35531;DHT22;21637;53.352;-6.356;2024-03-29T08:12:52;7.20;99.90
35531;DHT22;21637;53.352;-6.356;2024-03-29T08:15:17;7.40;99.90
35531;DHT22;21637;53.352;-6.356;2024-03-29T08:17:44;7.70;99.90
35531;DHT22;21637;53.352;-6.356;2024-03-29T08:20:12;8.00;99.90
35531;DHT22;21637;53.352;-6.356;2024-03-29T08:22:38;8.10;99.90
35531;DHT22;21637;53.352;-6.356;2024-03-29T08:25:04;8.20;99.90
35531;DHT22;21637;53.352;-6.356;2024-03-29T08:27:30;8.20;99.90
35531;DHT22;21637;53.352;-6.356;2024-03-29T08:29:56;8.40;99.90
35531;DHT22;21637;53.352;-6.356;2024-03-29T08:32:22;8.50;99.90
35531;DHT22;21637;53.352;-6.356;2024-03-29T08:34:47;8.70;99.90
35531;DHT22;21637;53.352;-6.356;2024-03-29T08:37:13;8.80;99.90
35531;DHT22;21637;53.352;-6.356;2024-03-29T08:39:39;8.90;99.90
35531;DHT22;21637;53.352;-6.356;2024-03-29T08:42:05;8.90;99.90
35531;DHT22;21637;53.352;-6.356;2024-03-29T08:44:32;8.80;99.90
35531;DHT22;21637;53.352;-6.356;2024-03-29T08:46:59;8.80;99.90
35531;DHT22;21637;53.352;-6.356;2024-03-29T08:49:27;8.70;99.90
35531;DHT22;21637;53.352;-6.356;2024-03-29T08:51:53;8.80;99.90
35531;DHT22;21637;53.352;-6.356;2024-03-29T08:54:18;8.90;99.90
35531;DHT22;21637;53.352;-6.356;2024-03-29T08:56:44;9.20;99.90
35531;DHT22;21637;53.352;-6.356;2024-03-29T08:59:10;9.30;99.90
35531;DHT22;21637;53.352;-6.356;2024-03-29T09:01:39;9.30;99.90
35531;DHT22;21637;53.352;-6.356;2024-03-29T09:04:04;9.20;99.90
35531;DHT22;21637;53.352;-6.356;2024-03-29T09:06:33;9.20;99.90
35531;DHT22;21637;53.352;-6.356;2024-03-29T09:08:59;9.20;99.90
35531;DHT22;21637;53.352;-6.356;2024-03-29T09:11:24;9.10;99.90
35531;DHT22;21637;53.352;-6.356;2024-03-29T09:13:50;9.00;99.90
35531;DHT22;21637;53.352;-6.356;2024-03-29T09:16:16;9.00;99.90
35531;DHT22;21637;53.352;-6.356;2024-03-29T09:18:41;9.00;99.90
35531;DHT22;21637;53.352;-6.356;2024-03-29T09:21:07;9.00;99.90
35531;DHT22;21637;53.352;-6.356;2024-03-29T09:23:34;9.00;99.90
35531;DHT22;21637;53.352;-6.356;2024-03-29T09:26:00;9.00;99.90
35531;DHT22;21637;53.352;-6.356;2024-03-29T09:28:29;9.10;99.90
35531;DHT22;21637;53.352;-6.356;2024-03-29T09:31:00;9.10;99.90
35531;DHT22;21637;53.352;-6.356;2024-03-29T09:33:26;9.10;99.90
35531;DHT22;21637;53.352;-6.356;2024-03-29T09:35:52;9.10;99.90
35531;DHT22;21637;53.352;-6.356;2024-03-29T09:38:19;9.10;99.90
35531;DHT22;21637;53.352;-6.356;2024-03-29T09:40:45;9.20;99.90
35531;DHT22;21637;53.352;-6.356;2024-03-29T09:43:14;9.10;99.90
35531;DHT22;21637;53.352;-6.356;2024-03-29T09:45:42;9.20;99.90
35531;DHT22;21637;53.352;-6.356;2024-03-29T09:48:08;9.30;99.90
35531;DHT22;21637;53.352;-6.356;2024-03-29T09:50:38;9.30;99.90
35531;DHT22;21637;53.352;-6.356;2024-03-29T09:53:07;9.40;99.90
35531;DHT22;21637;53.352;-6.356;2024-03-29T09:55:37;9.50;99.90
35531;DHT22;21637;53.352;-6.356;2024-03-29T09:58:02;9.50;99.90
35531;DHT22;21637;53.352;-6.356;2024-03-29T10:00:28;9.50;99.90
35531;DHT22;21637;53.352;-6.356;2024-03-29T10:02:56;9.60;99.90
35531;DHT22;21637;53.352;-6.356;2024-03-29T10:05:26;9.60;99.90
35531;DHT22;21637;53.352;-6.356;2024-03-29T10:07:54;9.70;99.90
35531;DHT22;21637;53.352;-6.356;2024-03-29T10:10:20;9.80;99.90
35531;DHT22;21637;53.352;-6.356;2024-03-29T10:12:45;9.90;99.90
35531;DHT22;21637;53.352;-6.356;2024-03-29T10:15:12;10.00;99.90
35531;DHT22;21637;53.352;-6.356;2024-03-29T10:17:46;10.00;99.90
35531;DHT22;21637;53.352;-6.356;2024-03-29T10:20:19;9.90;99.90
35531;DHT22;21637;53.352;-6.356;2024-03-29T10:22:45;9.90;99.90
35531;DHT22;21637;53.352;-6.356;2024-03-29T10:25:13;10.00;99.90
35531;DHT22;21637;53.352;-6.356;2024-03-29T10:27:39;9.90;99.90
35531;DHT22;21637;53.352;-6.356;2024-03-29T10:30:09;10.00;99.90
35531;DHT22;21637;53.352;-6.356;2024-03-29T10:32:40;10.00;99.90
35531;DHT22;21637;53.352;-6.356;2024-03-29T10:35:06;10.10;99.90
35531;DHT22;21637;53.352;-6.356;2024-03-29T10:37:33;10.10;99.90
35531;DHT22;21637;53.352;-6.356;2024-03-29T10:40:08;10.20;99.90
35531;DHT22;21637;53.352;-6.356;2024-03-29T10:42:37;10.30;99.90
35531;DHT22;21637;53.352;-6.356;2024-03-29T10:45:06;10.70;99.90
35531;DHT22;21637;53.352;-6.356;2024-03-29T10:47:32;11.00;99.90
35531;DHT22;21637;53.352;-6.356;2024-03-29T10:49:59;11.30;99.90
35531;DHT22;21637;53.352;-6.356;2024-03-29T10:52:25;11.50;99.90
35531;DHT22;21637;53.352;-6.356;2024-03-29T10:54:54;11.60;99.90
35531;DHT22;21637;53.352;-6.356;2024-03-29T10:57:23;11.70;99.90
35531;DHT22;21637;53.352;-6.356;2024-03-29T11:00:14;11.80;99.90
35531;DHT22;21637;53.352;-6.356;2024-03-29T11:03:26;11.90;99.90
35531;DHT22;21637;53.352;-6.356;2024-03-29T11:05:55;11.90;99.90
35531;DHT22;21637;53.352;-6.356;2024-03-29T11:08:27;11.80;99.90
35531;DHT22;21637;53.352;-6.356;2024-03-29T11:10:58;11.80;99.90
35531;DHT22;21637;53.352;-6.356;2024-03-29T11:13:44;11.80;99.90
35531;DHT22;21637;53.352;-6.356;2024-03-29T11:16:11;11.80;99.90
35531;DHT22;21637;53.352;-6.356;2024-03-29T11:18:38;11.80;99.90
35531;DHT22;21637;53.352;-6.356;2024-03-29T11:21:05;11.80;99.90
35531;DHT22;21637;53.352;-6.356;2024-03-29T11:23:34;11.90;99.90
35531;DHT22;21637;53.352;-6.356;2024-03-29T11:26:00;11.80;99.90
35531;DHT22;21637;53.352;-6.356;2024-03-29T11:28:28;11.80;99.90
35531;DHT22;21637;53.352;-6.356;2024-03-29T11:31:01;11.90;99.90
35531;DHT22;21637;53.352;-6.356;2024-03-29T11:33:44;11.90;99.90
35531;DHT22;21637;53.352;-6.356;2024-03-29T11:36:15;11.90;99.90
35531;DHT22;21637;53.352;-6.356;2024-03-29T11:38:42;11.90;99.90
35531;DHT22;21637;53.352;-6.356;2024-03-29T11:41:15;11.80;99.90
35531;DHT22;21637;53.352;-6.356;2024-03-29T11:43:41;11.70;99.90
35531;DHT22;21637;53.352;-6.356;2024-03-29T11:46:14;11.60;99.90
35531;DHT22;21637;53.352;-6.356;2024-03-29T11:48:43;11.70;99.90
35531;DHT22;21637;53.352;-6.356;2024-03-29T11:51:13;11.80;99.90
35531;DHT22;21637;53.352;-6.356;2024-03-29T11:53:40;11.90;99.90
35531;DHT22;21637;53.352;-6.356;2024-03-29T11:56:06;12.00;99.90
35531;DHT22;21637;53.352;-6.356;2024-03-29T11:58:33;12.00;99.90
35531;DHT22;21637;53.352;-6.356;2024-03-29T12:01:00;12.10;99.90
35531;DHT22;21637;53.352;-6.356;2024-03-29T12:03:30;12.20;99.90
35531;DHT22;21637;53.352;-6.356;2024-03-29T12:05:58;12.10;99.90
35531;DHT22;21637;53.352;-6.356;2024-03-29T12:08:31;12.00;99.90
35531;DHT22;21637;53.352;-6.356;2024-03-29T12:11:01;11.90;99.90
35531;DHT22;21637;53.352;-6.356;2024-03-29T12:13:28;11.80;99.90
35531;DHT22;21637;53.352;-6.356;2024-03-29T12:15:54;11.70;99.90
35531;DHT22;21637;53.352;-6.356;2024-03-29T12:18:21;11.50;99.90
35531;DHT22;21637;53.352;-6.356;2024-03-29T12:20:48;11.40;99.90
35531;DHT22;21637;53.352;-6.356;2024-03-29T12:23:19;11.30;99.90
35531;DHT22;21637;53.352;-6.356;2024-03-29T12:25:45;11.20;99.90
35531;DHT22;21637;53.352;-6.356;2024-03-29T12:28:12;11.30;99.90
35531;DHT22;21637;53.352;-6.356;2024-03-29T12:30:44;11.50;99.90
35531;DHT22;21637;53.352;-6.356;2024-03-29T12:33:18;11.60;99.90
35531;DHT22;21637;53.352;-6.356;2024-03-29T12:35:51;11.70;99.90
35531;DHT22;21637;53.352;-6.356;2024-03-29T12:38:20;11.80;99.90
35531;DHT22;21637;53.352;-6.356;2024-03-29T12:40:49;11.80;99.90
35531;DHT22;21637;53.352;-6.356;2024-03-29T12:43:20;11.80;99.90
35531;DHT22;21637;53.352;-6.356;2024-03-29T12:45:48;11.80;99.90
35531;DHT22;21637;53.352;-6.356;2024-03-29T12:48:20;11.80;99.90
35531;DHT22;21637;53.352;-6.356;2024-03-29T12:50:46;11.80;99.90
35531;DHT22;21637;53.352;-6.356;2024-03-29T12:53:13;11.80;99.90
35531;DHT22;21637;53.352;-6.356;2024-03-29T12:55:40;11.90;99.90
35531;DHT22;21637;53.352;-6.356;2024-03-29T12:58:09;12.10;99.90
35531;DHT22;21637;53.352;-6.356;2024-03-29T13:00:40;12.10;99.90
35531;DHT22;21637;53.352;-6.356;2024-03-29T13:03:07;12.30;99.90
35531;DHT22;21637;53.352;-6.356;2024-03-29T13:05:34;12.60;99.90
35531;DHT22;21637;53.352;-6.356;2024-03-29T13:08:19;12.70;99.90
35531;DHT22;21637;53.352;-6.356;2024-03-29T13:10:44;12.90;99.90
35531;DHT22;21637;53.352;-6.356;2024-03-29T13:13:10;13.10;99.90
35531;DHT22;21637;53.352;-6.356;2024-03-29T13:15:38;13.20;99.90
35531;DHT22;21637;53.352;-6.356;2024-03-29T13:18:05;13.30;99.90
35531;DHT22;21637;53.352;-6.356;2024-03-29T13:20:32;13.20;99.90
35531;DHT22;21637;53.352;-6.356;2024-03-29T13:22:59;13.20;99.90
35531;DHT22;21637;53.352;-6.356;2024-03-29T13:25:24;13.30;99.90
35531;DHT22;21637;53.352;-6.356;2024-03-29T13:27:52;13.20;99.90
35531;DHT22;21637;53.352;-6.356;2024-03-29T13:30:23;13.10;99.90
35531;DHT22;21637;53.352;-6.356;2024-03-29T13:32:49;12.90;99.90
35531;DHT22;21637;53.352;-6.356;2024-03-29T13:35:15;12.70;99.90
35531;DHT22;21637;53.352;-6.356;2024-03-29T13:37:45;12.50;99.90
35531;DHT22;21637;53.352;-6.356;2024-03-29T13:40:19;12.40;99.90
35531;DHT22;21637;53.352;-6.356;2024-03-29T13:42:45;12.30;99.90
35531;DHT22;21637;53.352;-6.356;2024-03-29T13:45:11;12.20;99.90
35531;DHT22;21637;53.352;-6.356;2024-03-29T13:47:38;12.20;99.90
35531;DHT22;21637;53.352;-6.356;2024-03-29T13:50:06;12.30;99.90
35531;DHT22;21637;53.352;-6.356;2024-03-29T13:52:32;12.40;99.90
35531;DHT22;21637;53.352;-6.356;2024-03-29T13:54:59;12.50;99.90
35531;DHT22;21637;53.352;-6.356;2024-03-29T13:57:25;12.60;99.90
35531;DHT22;21637;53.352;-6.356;2024-03-29T13:59:51;12.70;99.90
35531;DHT22;21637;53.352;-6.356;2024-03-29T14:02:18;12.70;99.90
35531;DHT22;21637;53.352;-6.356;2024-03-29T14:04:44;12.80;99.90
35531;DHT22;21637;53.352;-6.356;2024-03-29T14:07:11;13.10;99.90
35531;DHT22;21637;53.352;-6.356;2024-03-29T14:09:38;13.20;99.90
35531;DHT22;21637;53.352;-6.356;2024-03-29T14:12:04;13.20;99.90
35531;DHT22;21637;53.352;-6.356;2024-03-29T14:14:31;13.20;99.90
35531;DHT22;21637;53.352;-6.356;2024-03-29T14:16:57;13.10;99.90
35531;DHT22;21637;53.352;-6.356;2024-03-29T14:19:23;13.20;99.90
35531;DHT22;21637;53.352;-6.356;2024-03-29T14:21:49;13.50;99.90
35531;DHT22;21637;53.352;-6.356;2024-03-29T14:24:15;13.50;99.90
35531;DHT22;21637;53.352;-6.356;2024-03-29T14:26:42;13.30;99.90
35531;DHT22;21637;53.352;-6.356;2024-03-29T14:29:08;13.30;99.90
35531;DHT22;21637;53.352;-6.356;2024-03-29T14:31:37;13.20;99.90
35531;DHT22;21637;53.352;-6.356;2024-03-29T14:34:03;13.00;99.90
35531;DHT22;21637;53.352;-6.356;2024-03-29T14:36:28;12.90;99.90
35531;DHT22;21637;53.352;-6.356;2024-03-29T14:38:58;12.70;99.90
35531;DHT22;21637;53.352;-6.356;2024-03-29T14:41:26;12.60;99.90
35531;DHT22;21637;53.352;-6.356;2024-03-29T14:43:52;12.40;99.90
35531;DHT22;21637;53.352;-6.356;2024-03-29T14:46:18;12.40;99.90
35531;DHT22;21637;53.352;-6.356;2024-03-29T14:48:46;12.30;99.90
35531;DHT22;21637;53.352;-6.356;2024-03-29T14:51:12;12.30;99.90
35531;DHT22;21637;53.352;-6.356;2024-03-29T14:53:38;12.30;99.90
35531;DHT22;21637;53.352;-6.356;2024-03-29T14:56:04;12.40;99.90
35531;DHT22;21637;53.352;-6.356;2024-03-29T14:58:30;12.60;99.90
35531;DHT22;21637;53.352;-6.356;2024-03-29T15:00:56;12.80;99.90
35531;DHT22;21637;53.352;-6.356;2024-03-29T15:03:22;13.00;99.90
35531;DHT22;21637;53.352;-6.356;2024-03-29T15:05:49;13.10;99.90
35531;DHT22;21637;53.352;-6.356;2024-03-29T15:08:15;13.10;99.90
35531;DHT22;21637;53.352;-6.356;2024-03-29T15:10:44;13.10;99.90
35531;DHT22;21637;53.352;-6.356;2024-03-29T15:13:09;13.30;99.90
35531;DHT22;21637;53.352;-6.356;2024-03-29T15:15:35;13.20;99.90
35531;DHT22;21637;53.352;-6.356;2024-03-29T15:18:05;13.30;99.90
35531;DHT22;21637;53.352;-6.356;2024-03-29T15:20:34;13.40;99.90
35531;DHT22;21637;53.352;-6.356;2024-03-29T15:22:59;13.50;99.90
35531;DHT22;21637;53.352;-6.356;2024-03-29T15:25:25;13.50;99.90